Avon, Pennsylvania
Current Conditions -  °F | °C
As of 1:58 AM on Sunday 23 Nov 2014 (Local Time) from KMUI Reporting Station
Clear Clear  
Wind Chill: 32°   Ceiling: Unl
Heat Index: 32°   Visibility: 10mi
Dew Point: 21°   Wind: 1mph
Humidity: 64%   Direction: 120°ESE
Pressure: 30.19"   Gusts: NA
Location:  40.2957°N, 76.4189°W
Report Text: KMUI 230658Z AUTO 12001KT 10SM CLR 00/M06 A3019 RMK AO2 SLP231 T00001061 $
Loading
Personal Weather Stations






























Interactive Weather Map New forecast layout! Learn more

10-Day Weather Forecast

Advertisements
Track Severe Weather on mobile